sensor_id;sensor_type;location;lat;lon;timestamp;P1;durP1;ratioP1;P2;durP2;ratioP2
70045;SDS011;57385;41.832;23.494;2022-07-12T00:00:10;3.67;;;2.77;;
70045;SDS011;57385;41.832;23.494;2022-07-12T00:00:30;2.90;;;2.60;;
70045;SDS011;57385;41.832;23.494;2022-07-12T00:00:50;2.50;;;2.40;;
70045;SDS011;57385;41.832;23.494;2022-07-12T00:01:09;2.85;;;2.55;;
70045;SDS011;57385;41.832;23.494;2022-07-12T00:01:29;3.13;;;2.40;;
70045;SDS011;57385;41.832;23.494;2022-07-12T00:01:48;3.20;;;2.45;;
70045;SDS011;57385;41.832;23.494;2022-07-12T00:02:07;3.33;;;2.50;;
70045;SDS011;57385;41.832;23.494;2022-07-12T00:02:27;3.95;;;2.60;;
70045;SDS011;57385;41.832;23.494;2022-07-12T00:02:46;3.07;;;2.70;;
70045;SDS011;57385;41.832;23.494;2022-07-12T00:03:06;4.18;;;2.83;;
70045;SDS011;57385;41.832;23.494;2022-07-12T00:03:25;4.80;;;2.90;;
70045;SDS011;57385;41.832;23.494;2022-07-12T00:03:44;3.30;;;2.90;;
70045;SDS011;57385;41.832;23.494;2022-07-12T00:04:04;3.17;;;2.87;;
70045;SDS011;57385;41.832;23.494;2022-07-12T00:04:23;3.40;;;3.00;;
70045;SDS011;57385;41.832;23.494;2022-07-12T00:04:43;3.50;;;3.17;;
70045;SDS011;57385;41.832;23.494;2022-07-12T00:05:03;3.38;;;2.70;;
70045;SDS011;57385;41.832;23.494;2022-07-12T00:05:22;4.50;;;2.90;;
70045;SDS011;57385;41.832;23.494;2022-07-12T00:05:42;3.67;;;2.63;;
70045;SDS011;57385;41.832;23.494;2022-07-12T00:06:01;3.13;;;2.50;;
70045;SDS011;57385;41.832;23.494;2022-07-12T00:06:21;3.40;;;2.60;;
70045;SDS011;57385;41.832;23.494;2022-07-12T00:06:40;2.67;;;2.47;;
70045;SDS011;57385;41.832;23.494;2022-07-12T00:07:00;3.10;;;2.30;;
70045;SDS011;57385;41.832;23.494;2022-07-12T00:07:19;4.03;;;2.37;;
70045;SDS011;57385;41.832;23.494;2022-07-12T00:07:39;3.30;;;2.67;;
70045;SDS011;57385;41.832;23.494;2022-07-12T00:07:58;2.80;;;2.33;;
70045;SDS011;57385;41.832;23.494;2022-07-12T00:08:17;3.35;;;2.50;;
70045;SDS011;57385;41.832;23.494;2022-07-12T00:08:37;2.80;;;2.57;;
70045;SDS011;57385;41.832;23.494;2022-07-12T00:08:56;2.92;;;2.60;;
70045;SDS011;57385;41.832;23.494;2022-07-12T00:09:16;4.60;;;2.73;;
70045;SDS011;57385;41.832;23.494;2022-07-12T00:09:35;5.00;;;2.72;;
70045;SDS011;57385;41.832;23.494;2022-07-12T00:09:55;2.80;;;2.60;;
70045;SDS011;57385;41.832;23.494;2022-07-12T00:10:14;2.60;;;2.40;;
70045;SDS011;57385;41.832;23.494;2022-07-12T00:10:34;2.60;;;2.40;;
70045;SDS011;57385;41.832;23.494;2022-07-12T00:10:53;2.95;;;2.63;;
70045;SDS011;57385;41.832;23.494;2022-07-12T00:11:13;4.07;;;2.90;;
70045;SDS011;57385;41.832;23.494;2022-07-12T00:11:33;3.15;;;2.85;;
70045;SDS011;57385;41.832;23.494;2022-07-12T00:11:53;3.80;;;2.60;;
70045;SDS011;57385;41.832;23.494;2022-07-12T00:12:13;4.30;;;2.70;;
70045;SDS011;57385;41.832;23.494;2022-07-12T00:12:32;3.47;;;2.60;;
70045;SDS011;57385;41.832;23.494;2022-07-12T00:12:52;3.28;;;2.90;;
70045;SDS011;57385;41.832;23.494;2022-07-12T00:13:11;2.95;;;2.75;;
70045;SDS011;57385;41.832;23.494;2022-07-12T00:13:31;2.60;;;2.40;;
70045;SDS011;57385;41.832;23.494;2022-07-12T00:13:50;2.50;;;2.30;;
70045;SDS011;57385;41.832;23.494;2022-07-12T00:14:10;2.93;;;2.73;;
70045;SDS011;57385;41.832;23.494;2022-07-12T00:14:29;3.03;;;2.83;;
70045;SDS011;57385;41.832;23.494;2022-07-12T00:14:49;2.90;;;2.70;;
70045;SDS011;57385;41.832;23.494;2022-07-12T00:15:08;2.67;;;2.47;;
70045;SDS011;57385;41.832;23.494;2022-07-12T00:15:28;2.85;;;2.60;;
70045;SDS011;57385;41.832;23.494;2022-07-12T00:15:48;2.90;;;2.70;;
70045;SDS011;57385;41.832;23.494;2022-07-12T00:16:07;2.92;;;2.70;;
70045;SDS011;57385;41.832;23.494;2022-07-12T00:16:27;3.17;;;2.60;;
70045;SDS011;57385;41.832;23.494;2022-07-12T00:16:46;4.78;;;2.75;;
70045;SDS011;57385;41.832;23.494;2022-07-12T00:17:06;3.47;;;2.80;;
70045;SDS011;57385;41.832;23.494;2022-07-12T00:17:25;4.07;;;2.60;;
70045;SDS011;57385;41.832;23.494;2022-07-12T00:17:44;4.43;;;2.80;;
70045;SDS011;57385;41.832;23.494;2022-07-12T00:18:04;3.83;;;2.88;;
70045;SDS011;57385;41.832;23.494;2022-07-12T00:18:24;4.07;;;2.93;;
70045;SDS011;57385;41.832;23.494;2022-07-12T00:18:43;3.67;;;2.80;;
70045;SDS011;57385;41.832;23.494;2022-07-12T00:19:03;3.28;;;2.97;;
70045;SDS011;57385;41.832;23.494;2022-07-12T00:19:22;3.60;;;3.17;;
70045;SDS011;57385;41.832;23.494;2022-07-12T00:19:41;3.28;;;2.97;;
70045;SDS011;57385;41.832;23.494;2022-07-12T00:20:01;2.87;;;2.67;;
70045;SDS011;57385;41.832;23.494;2022-07-12T00:20:20;2.67;;;2.47;;
70045;SDS011;57385;41.832;23.494;2022-07-12T00:20:40;3.13;;;2.77;;
70045;SDS011;57385;41.832;23.494;2022-07-12T00:20:59;3.53;;;2.85;;
70045;SDS011;57385;41.832;23.494;2022-07-12T00:21:19;3.83;;;2.77;;
70045;SDS011;57385;41.832;23.494;2022-07-12T00:21:38;3.55;;;2.40;;
70045;SDS011;57385;41.832;23.494;2022-07-12T00:21:58;3.80;;;2.43;;
70045;SDS011;57385;41.832;23.494;2022-07-12T00:22:17;2.70;;;2.47;;
70045;SDS011;57385;41.832;23.494;2022-07-12T00:22:37;2.30;;;2.20;;
70045;SDS011;57385;41.832;23.494;2022-07-12T00:22:56;2.50;;;2.30;;
70045;SDS011;57385;41.832;23.494;2022-07-12T00:23:16;2.70;;;2.47;;
70045;SDS011;57385;41.832;23.494;2022-07-12T00:23:36;2.70;;;2.50;;
70045;SDS011;57385;41.832;23.494;2022-07-12T00:23:55;3.00;;;2.37;;
70045;SDS011;57385;41.832;23.494;2022-07-12T00:24:15;2.60;;;2.40;;
70045;SDS011;57385;41.832;23.494;2022-07-12T00:24:34;2.80;;;2.50;;
70045;SDS011;57385;41.832;23.494;2022-07-12T00:24:54;2.97;;;2.70;;
70045;SDS011;57385;41.832;23.494;2022-07-12T00:25:13;2.80;;;2.60;;
70045;SDS011;57385;41.832;23.494;2022-07-12T00:25:33;2.60;;;2.40;;
70045;SDS011;57385;41.832;23.494;2022-07-12T00:25:52;3.10;;;2.50;;
70045;SDS011;57385;41.832;23.494;2022-07-12T00:26:30;2.90;;;2.70;;
70045;SDS011;57385;41.832;23.494;2022-07-12T00:26:50;3.97;;;2.65;;
70045;SDS011;57385;41.832;23.494;2022-07-12T00:27:09;2.87;;;2.23;;
70045;SDS011;57385;41.832;23.494;2022-07-12T00:27:29;2.75;;;2.50;;
70045;SDS011;57385;41.832;23.494;2022-07-12T00:27:48;2.80;;;2.50;;
70045;SDS011;57385;41.832;23.494;2022-07-12T00:28:08;3.00;;;2.70;;
70045;SDS011;57385;41.832;23.494;2022-07-12T00:28:27;3.08;;;2.70;;
70045;SDS011;57385;41.832;23.494;2022-07-12T00:28:47;3.13;;;2.50;;
70045;SDS011;57385;41.832;23.494;2022-07-12T00:29:06;2.73;;;2.43;;
70045;SDS011;57385;41.832;23.494;2022-07-12T00:29:26;3.33;;;2.50;;
70045;SDS011;57385;41.832;23.494;2022-07-12T00:29:45;4.13;;;2.63;;
70045;SDS011;57385;41.832;23.494;2022-07-12T00:30:05;2.97;;;2.77;;
70045;SDS011;57385;41.832;23.494;2022-07-12T00:30:26;2.80;;;2.60;;
70045;SDS011;57385;41.832;23.494;2022-07-12T00:30:45;3.20;;;2.90;;
70045;SDS011;57385;41.832;23.494;2022-07-12T00:31:05;2.87;;;2.57;;
70045;SDS011;57385;41.832;23.494;2022-07-12T00:31:24;2.92;;;2.70;;
70045;SDS011;57385;41.832;23.494;2022-07-12T00:31:44;3.00;;;2.80;;
70045;SDS011;57385;41.832;23.494;2022-07-12T00:32:03;2.72;;;2.63;;
70045;SDS011;57385;41.832;23.494;2022-07-12T00:32:23;3.90;;;2.65;;
70045;SDS011;57385;41.832;23.494;2022-07-12T00:32:42;3.60;;;2.60;;
70045;SDS011;57385;41.832;23.494;2022-07-12T00:33:02;2.83;;;2.63;;
70045;SDS011;57385;41.832;23.494;2022-07-12T00:33:21;3.30;;;3.00;;
70045;SDS011;57385;41.832;23.494;2022-07-12T00:33:41;2.85;;;2.65;;
70045;SDS011;57385;41.832;23.494;2022-07-12T00:34:00;3.00;;;2.70;;
70045;SDS011;57385;41.832;23.494;2022-07-12T00:34:19;2.97;;;2.78;;
70045;SDS011;57385;41.832;23.494;2022-07-12T00:34:39;2.90;;;2.70;;
70045;SDS011;57385;41.832;23.494;2022-07-12T00:34:58;2.83;;;2.63;;
70045;SDS011;57385;41.832;23.494;2022-07-12T00:35:18;3.00;;;2.80;;
70045;SDS011;57385;41.832;23.494;2022-07-12T00:35:37;2.78;;;2.58;;
70045;SDS011;57385;41.832;23.494;2022-07-12T00:35:57;3.10;;;2.87;;
70045;SDS011;57385;41.832;23.494;2022-07-12T00:36:16;3.60;;;2.95;;
70045;SDS011;57385;41.832;23.494;2022-07-12T00:36:36;3.10;;;2.90;;
70045;SDS011;57385;41.832;23.494;2022-07-12T00:36:55;3.03;;;2.78;;
70045;SDS011;57385;41.832;23.494;2022-07-12T00:37:14;3.43;;;2.80;;
70045;SDS011;57385;41.832;23.494;2022-07-12T00:37:34;3.90;;;3.10;;
70045;SDS011;57385;41.832;23.494;2022-07-12T00:37:53;3.07;;;2.80;;
70045;SDS011;57385;41.832;23.494;2022-07-12T00:38:13;3.30;;;3.00;;
70045;SDS011;57385;41.832;23.494;2022-07-12T00:38:32;3.13;;;2.90;;
70045;SDS011;57385;41.832;23.494;2022-07-12T00:38:52;3.20;;;2.83;;
70045;SDS011;57385;41.832;23.494;2022-07-12T00:39:11;3.60;;;2.97;;
70045;SDS011;57385;41.832;23.494;2022-07-12T00:39:31;3.40;;;3.10;;
70045;SDS011;57385;41.832;23.494;2022-07-12T00:39:50;3.10;;;2.90;;
70045;SDS011;57385;41.832;23.494;2022-07-12T00:40:10;3.55;;;3.10;;
70045;SDS011;57385;41.832;23.494;2022-07-12T00:40:30;3.20;;;2.90;;
70045;SDS011;57385;41.832;23.494;2022-07-12T00:40:49;3.40;;;3.10;;
70045;SDS011;57385;41.832;23.494;2022-07-12T00:41:09;3.80;;;3.00;;
70045;SDS011;57385;41.832;23.494;2022-07-12T00:41:28;3.45;;;3.10;;
70045;SDS011;57385;41.832;23.494;2022-07-12T00:41:48;3.60;;;2.90;;
70045;SDS011;57385;41.832;23.494;2022-07-12T00:42:07;3.33;;;3.03;;
70045;SDS011;57385;41.832;23.494;2022-07-12T00:42:27;3.47;;;3.17;;
70045;SDS011;57385;41.832;23.494;2022-07-12T00:42:46;3.50;;;3.10;;
70045;SDS011;57385;41.832;23.494;2022-07-12T00:43:06;3.88;;;3.10;;
70045;SDS011;57385;41.832;23.494;2022-07-12T00:43:26;3.60;;;2.83;;
70045;SDS011;57385;41.832;23.494;2022-07-12T00:43:45;3.27;;;2.97;;
70045;SDS011;57385;41.832;23.494;2022-07-12T00:44:05;3.40;;;3.10;;
70045;SDS011;57385;41.832;23.494;2022-07-12T00:44:24;3.27;;;2.97;;
70045;SDS011;57385;41.832;23.494;2022-07-12T00:44:44;3.25;;;2.95;;
70045;SDS011;57385;41.832;23.494;2022-07-12T00:45:03;4.13;;;3.03;;
70045;SDS011;57385;41.832;23.494;2022-07-12T00:45:23;3.60;;;3.13;;
70045;SDS011;57385;41.832;23.494;2022-07-12T00:45:43;4.03;;;3.20;;
70045;SDS011;57385;41.832;23.494;2022-07-12T00:46:02;3.30;;;3.00;;
70045;SDS011;57385;41.832;23.494;2022-07-12T00:46:23;3.78;;;3.00;;
70045;SDS011;57385;41.832;23.494;2022-07-12T00:46:42;4.60;;;3.22;;
70045;SDS011;57385;41.832;23.494;2022-07-12T00:47:02;3.38;;;3.08;;
70045;SDS011;57385;41.832;23.494;2022-07-12T00:47:31;3.70;;;3.40;;
70045;SDS011;57385;41.832;23.494;2022-07-12T00:47:53;5.03;;;3.70;;
70045;SDS011;57385;41.832;23.494;2022-07-12T00:48:12;3.90;;;3.53;;
70045;SDS011;57385;41.832;23.494;2022-07-12T00:48:32;3.67;;;3.38;;
70045;SDS011;57385;41.832;23.494;2022-07-12T00:48:52;4.72;;;3.38;;
70045;SDS011;57385;41.832;23.494;2022-07-12T00:49:13;3.95;;;3.15;;
70045;SDS011;57385;41.832;23.494;2022-07-12T00:49:32;3.42;;;3.00;;
70045;SDS011;57385;41.832;23.494;2022-07-12T00:49:52;3.40;;;2.97;;
70045;SDS011;57385;41.832;23.494;2022-07-12T00:50:19;3.40;;;3.10;;
70045;SDS011;57385;41.832;23.494;2022-07-12T00:50:39;3.88;;;3.28;;
70045;SDS011;57385;41.832;23.494;2022-07-12T00:51:02;4.15;;;3.22;;
70045;SDS011;57385;41.832;23.494;2022-07-12T00:51:22;3.33;;;3.03;;
70045;SDS011;57385;41.832;23.494;2022-07-12T00:51:44;4.35;;;2.88;;
70045;SDS011;57385;41.832;23.494;2022-07-12T00:52:04;3.80;;;2.97;;
70045;SDS011;57385;41.832;23.494;2022-07-12T00:52:23;3.75;;;3.17;;
70045;SDS011;57385;41.832;23.494;2022-07-12T00:52:43;3.25;;;2.95;;
70045;SDS011;57385;41.832;23.494;2022-07-12T00:53:04;3.22;;;2.75;;
70045;SDS011;57385;41.832;23.494;2022-07-12T00:53:23;3.97;;;3.00;;
70045;SDS011;57385;41.832;23.494;2022-07-12T00:53:44;4.22;;;3.00;;
70045;SDS011;57385;41.832;23.494;2022-07-12T00:54:04;3.22;;;2.78;;
70045;SDS011;57385;41.832;23.494;2022-07-12T00:54:24;3.55;;;3.00;;
70045;SDS011;57385;41.832;23.494;2022-07-12T00:54:43;5.20;;;3.10;;
70045;SDS011;57385;41.832;23.494;2022-07-12T00:55:03;4.13;;;3.10;;
70045;SDS011;57385;41.832;23.494;2022-07-12T00:55:24;3.58;;;2.80;;
70045;SDS011;57385;41.832;23.494;2022-07-12T00:55:43;3.65;;;2.90;;
70045;SDS011;57385;41.832;23.494;2022-07-12T00:56:03;3.38;;;3.08;;
70045;SDS011;57385;41.832;23.494;2022-07-12T00:56:23;3.40;;;3.10;;
70045;SDS011;57385;41.832;23.494;2022-07-12T00:56:43;3.47;;;2.80;;
70045;SDS011;57385;41.832;23.494;2022-07-12T00:57:02;3.38;;;2.70;;
70045;SDS011;57385;41.832;23.494;2022-07-12T00:57:22;3.20;;;2.90;;
70045;SDS011;57385;41.832;23.494;2022-07-12T00:57:42;3.45;;;3.08;;
70045;SDS011;57385;41.832;23.494;2022-07-12T00:58:02;3.63;;;3.33;;
70045;SDS011;57385;41.832;23.494;2022-07-12T00:58:22;4.22;;;3.65;;
70045;SDS011;57385;41.832;23.494;2022-07-12T00:58:43;4.72;;;3.45;;
70045;SDS011;57385;41.832;23.494;2022-07-12T00:59:03;4.65;;;3.35;;
70045;SDS011;57385;41.832;23.494;2022-07-12T00:59:22;4.70;;;3.07;;
70045;SDS011;57385;41.832;23.494;2022-07-12T00:59:42;5.00;;;3.00;;
70045;SDS011;57385;41.832;23.494;2022-07-12T01:00:02;5.03;;;3.03;;
70045;SDS011;57385;41.832;23.494;2022-07-12T01:00:24;5.10;;;2.90;;
70045;SDS011;57385;41.832;23.494;2022-07-12T01:00:45;3.78;;;3.05;;
70045;SDS011;57385;41.832;23.494;2022-07-12T01:01:04;3.95;;;2.80;;
70045;SDS011;57385;41.832;23.494;2022-07-12T01:01:24;3.43;;;3.03;;
70045;SDS011;57385;41.832;23.494;2022-07-12T01:01:44;4.15;;;2.85;;
70045;SDS011;57385;41.832;23.494;2022-07-12T01:02:04;3.10;;;2.40;;
70045;SDS011;57385;41.832;23.494;2022-07-12T01:02:24;2.83;;;2.53;;
70045;SDS011;57385;41.832;23.494;2022-07-12T01:02:44;3.03;;;2.70;;
70045;SDS011;57385;41.832;23.494;2022-07-12T01:03:05;4.82;;;2.75;;
70045;SDS011;57385;41.832;23.494;2022-07-12T01:03:25;3.80;;;2.63;;
70045;SDS011;57385;41.832;23.494;2022-07-12T01:03:45;2.70;;;2.40;;
70045;SDS011;57385;41.832;23.494;2022-07-12T01:04:05;3.00;;;2.70;;
70045;SDS011;57385;41.832;23.494;2022-07-12T01:04:24;2.97;;;2.73;;
70045;SDS011;57385;41.832;23.494;2022-07-12T01:04:44;3.00;;;2.70;;
70045;SDS011;57385;41.832;23.494;2022-07-12T01:05:04;3.95;;;2.50;;
70045;SDS011;57385;41.832;23.494;2022-07-12T01:05:26;3.65;;;2.70;;
70045;SDS011;57385;41.832;23.494;2022-07-12T01:05:46;3.08;;;2.70;;
70045;SDS011;57385;41.832;23.494;2022-07-12T01:06:07;3.17;;;2.63;;
70045;SDS011;57385;41.832;23.494;2022-07-12T01:06:26;2.65;;;2.45;;
70045;SDS011;57385;41.832;23.494;2022-07-12T01:06:46;3.97;;;2.67;;
70045;SDS011;57385;41.832;23.494;2022-07-12T01:07:05;4.43;;;2.80;;
70045;SDS011;57385;41.832;23.494;2022-07-12T01:07:25;4.95;;;2.80;;
70045;SDS011;57385;41.832;23.494;2022-07-12T01:07:45;2.88;;;2.58;;
70045;SDS011;57385;41.832;23.494;2022-07-12T01:08:04;3.53;;;2.50;;
70045;SDS011;57385;41.832;23.494;2022-07-12T01:08:25;2.60;;;2.40;;
70045;SDS011;57385;41.832;23.494;2022-07-12T01:08:46;2.95;;;2.75;;
70045;SDS011;57385;41.832;23.494;2022-07-12T01:09:06;3.97;;;2.95;;
70045;SDS011;57385;41.832;23.494;2022-07-12T01:09:26;4.18;;;2.78;;
70045;SDS011;57385;41.832;23.494;2022-07-12T01:09:46;2.95;;;2.63;;
70045;SDS011;57385;41.832;23.494;2022-07-12T01:10:06;3.87;;;2.63;;
70045;SDS011;57385;41.832;23.494;2022-07-12T01:10:26;3.10;;;2.80;;
70045;SDS011;57385;41.832;23.494;2022-07-12T01:10:50;3.58;;;3.28;;
70045;SDS011;57385;41.832;23.494;2022-07-12T01:11:09;4.68;;;3.53;;
70045;SDS011;57385;41.832;23.494;2022-07-12T01:11:28;4.93;;;3.30;;
70045;SDS011;57385;41.832;23.494;2022-07-12T01:11:48;4.53;;;3.35;;
70045;SDS011;57385;41.832;23.494;2022-07-12T01:12:07;3.50;;;3.20;;
70045;SDS011;57385;41.832;23.494;2022-07-12T01:12:28;6.15;;;3.67;;
70045;SDS011;57385;41.832;23.494;2022-07-12T01:12:48;3.95;;;3.42;;
70045;SDS011;57385;41.832;23.494;2022-07-12T01:13:08;3.67;;;3.35;;
70045;SDS011;57385;41.832;23.494;2022-07-12T01:13:28;4.28;;;3.88;;
70045;SDS011;57385;41.832;23.494;2022-07-12T01:13:48;4.20;;;3.72;;
70045;SDS011;57385;41.832;23.494;2022-07-12T01:14:08;4.72;;;3.67;;
70045;SDS011;57385;41.832;23.494;2022-07-12T01:14:27;4.72;;;3.58;;
70045;SDS011;57385;41.832;23.494;2022-07-12T01:14:48;5.15;;;3.70;;
70045;SDS011;57385;41.832;23.494;2022-07-12T01:15:08;4.90;;;3.60;;
70045;SDS011;57385;41.832;23.494;2022-07-12T01:15:28;4.03;;;3.63;;
70045;SDS011;57385;41.832;23.494;2022-07-12T01:15:48;4.17;;;3.77;;
70045;SDS011;57385;41.832;23.494;2022-07-12T01:16:08;5.03;;;3.83;;
70045;SDS011;57385;41.832;23.494;2022-07-12T01:16:30;6.20;;;3.78;;
70045;SDS011;57385;41.832;23.494;2022-07-12T01:16:51;5.10;;;3.60;;
70045;SDS011;57385;41.832;23.494;2022-07-12T01:17:11;4.65;;;3.42;;
70045;SDS011;57385;41.832;23.494;2022-07-12T01:17:31;4.53;;;3.05;;
70045;SDS011;57385;41.832;23.494;2022-07-12T01:17:51;2.95;;;2.67;;
70045;SDS011;57385;41.832;23.494;2022-07-12T01:18:11;4.43;;;2.78;;
70045;SDS011;57385;41.832;23.494;2022-07-12T01:18:30;3.67;;;2.80;;
70045;SDS011;57385;41.832;23.494;2022-07-12T01:18:52;3.45;;;2.90;;
70045;SDS011;57385;41.832;23.494;2022-07-12T01:19:12;5.10;;;2.97;;
70045;SDS011;57385;41.832;23.494;2022-07-12T01:19:38;4.35;;;3.30;;
70045;SDS011;57385;41.832;23.494;2022-07-12T01:19:59;3.97;;;3.20;;
70045;SDS011;57385;41.832;23.494;2022-07-12T01:20:19;3.47;;;3.15;;
70045;SDS011;57385;41.832;23.494;2022-07-12T01:20:39;4.13;;;3.35;;
70045;SDS011;57385;41.832;23.494;2022-07-12T01:21:00;3.53;;;3.23;;
70045;SDS011;57385;41.832;23.494;2022-07-12T01:21:22;3.50;;;3.20;;
70045;SDS011;57385;41.832;23.494;2022-07-12T01:21:44;3.53;;;3.20;;
70045;SDS011;57385;41.832;23.494;2022-07-12T01:22:09;4.43;;;3.28;;
70045;SDS011;57385;41.832;23.494;2022-07-12T01:22:30;4.13;;;3.53;;
70045;SDS011;57385;41.832;23.494;2022-07-12T01:22:54;4.55;;;3.80;;
70045;SDS011;57385;41.832;23.494;2022-07-12T01:23:14;5.00;;;4.38;;
70045;SDS011;57385;41.832;23.494;2022-07-12T01:23:34;4.63;;;3.83;;
70045;SDS011;57385;41.832;23.494;2022-07-12T01:23:55;4.35;;;3.70;;
70045;SDS011;57385;41.832;23.494;2022-07-12T01:24:16;4.93;;;3.58;;
70045;SDS011;57385;41.832;23.494;2022-07-12T01:24:37;4.63;;;3.38;;
70045;SDS011;57385;41.832;23.494;2022-07-12T01:24:57;4.33;;;3.67;;
70045;SDS011;57385;41.832;23.494;2022-07-12T01:25:18;3.90;;;3.55;;
70045;SDS011;57385;41.832;23.494;2022-07-12T01:25:37;4.05;;;3.53;;
70045;SDS011;57385;41.832;23.494;2022-07-12T01:25:56;4.57;;;3.03;;
70045;SDS011;57385;41.832;23.494;2022-07-12T01:26:16;3.00;;;2.70;;
70045;SDS011;57385;41.832;23.494;2022-07-12T01:26:35;3.10;;;2.80;;
70045;SDS011;57385;41.832;23.494;2022-07-12T01:26:55;3.58;;;3.10;;
70045;SDS011;57385;41.832;23.494;2022-07-12T01:27:15;3.20;;;3.00;;
70045;SDS011;57385;41.832;23.494;2022-07-12T01:27:34;3.10;;;2.90;;
70045;SDS011;57385;41.832;23.494;2022-07-12T01:27:56;3.17;;;2.90;;
70045;SDS011;57385;41.832;23.494;2022-07-12T01:28:16;3.40;;;2.75;;
70045;SDS011;57385;41.832;23.494;2022-07-12T01:28:36;2.90;;;2.70;;
70045;SDS011;57385;41.832;23.494;2022-07-12T01:28:55;3.28;;;3.05;;
70045;SDS011;57385;41.832;23.494;2022-07-12T01:29:16;3.60;;;3.30;;
70045;SDS011;57385;41.832;23.494;2022-07-12T01:29:36;3.20;;;2.90;;
70045;SDS011;57385;41.832;23.494;2022-07-12T01:29:55;3.10;;;2.80;;
70045;SDS011;57385;41.832;23.494;2022-07-12T01:30:15;5.73;;;2.97;;
70045;SDS011;57385;41.832;23.494;2022-07-12T01:30:34;3.60;;;2.92;;
70045;SDS011;57385;41.832;23.494;2022-07-12T01:30:54;3.35;;;3.05;;
70045;SDS011;57385;41.832;23.494;2022-07-12T01:31:13;3.23;;;3.00;;
70045;SDS011;57385;41.832;23.494;2022-07-12T01:31:34;3.30;;;2.97;;
70045;SDS011;57385;41.832;23.494;2022-07-12T01:31:54;3.38;;;2.75;;
70045;SDS011;57385;41.832;23.494;2022-07-12T01:32:14;3.88;;;3.08;;
70045;SDS011;57385;41.832;23.494;2022-07-12T01:32:34;3.92;;;3.10;;
70045;SDS011;57385;41.832;23.494;2022-07-12T01:32:54;3.20;;;2.90;;
70045;SDS011;57385;41.832;23.494;2022-07-12T01:33:14;3.42;;;3.13;;
70045;SDS011;57385;41.832;23.494;2022-07-12T01:33:34;4.00;;;2.97;;
70045;SDS011;57385;41.832;23.494;2022-07-12T01:33:54;3.30;;;3.00;;
70045;SDS011;57385;41.832;23.494;2022-07-12T01:34:14;3.50;;;3.20;;
70045;SDS011;57385;41.832;23.494;2022-07-12T01:34:33;3.45;;;3.15;;
70045;SDS011;57385;41.832;23.494;2022-07-12T01:35:03;3.23;;;3.03;;
70045;SDS011;57385;41.832;23.494;2022-07-12T01:35:24;4.05;;;2.72;;
70045;SDS011;57385;41.832;23.494;2022-07-12T01:35:43;4.40;;;3.05;;
70045;SDS011;57385;41.832;23.494;2022-07-12T01:36:05;3.80;;;3.47;;
70045;SDS011;57385;41.832;23.494;2022-07-12T01:36:25;4.30;;;3.22;;
70045;SDS011;57385;41.832;23.494;2022-07-12T01:36:45;5.78;;;3.53;;
70045;SDS011;57385;41.832;23.494;2022-07-12T01:37:04;3.70;;;3.30;;
70045;SDS011;57385;41.832;23.494;2022-07-12T01:37:25;3.60;;;3.30;;
70045;SDS011;57385;41.832;23.494;2022-07-12T01:37:47;4.88;;;3.40;;
70045;SDS011;57385;41.832;23.494;2022-07-12T01:38:07;5.30;;;3.63;;
70045;SDS011;57385;41.832;23.494;2022-07-12T01:38:27;5.40;;;4.00;;
70045;SDS011;57385;41.832;23.494;2022-07-12T01:38:46;5.60;;;3.90;;
70045;SDS011;57385;41.832;23.494;2022-07-12T01:39:06;4.30;;;3.40;;
70045;SDS011;57385;41.832;23.494;2022-07-12T01:39:25;3.70;;;3.40;;
70045;SDS011;57385;41.832;23.494;2022-07-12T01:39:45;3.60;;;3.30;;
70045;SDS011;57385;41.832;23.494;2022-07-12T01:40:06;3.78;;;3.40;;
70045;SDS011;57385;41.832;23.494;2022-07-12T01:40:28;4.20;;;3.53;;
70045;SDS011;57385;41.832;23.494;2022-07-12T01:40:49;6.32;;;3.40;;
70045;SDS011;57385;41.832;23.494;2022-07-12T01:41:08;4.10;;;3.73;;
70045;SDS011;57385;41.832;23.494;2022-07-12T01:41:28;4.10;;;3.40;;
70045;SDS011;57385;41.832;23.494;2022-07-12T01:41:47;3.97;;;3.67;;
70045;SDS011;57385;41.832;23.494;2022-07-12T01:42:07;3.70;;;3.40;;
70045;SDS011;57385;41.832;23.494;2022-07-12T01:42:28;4.38;;;3.55;;
70045;SDS011;57385;41.832;23.494;2022-07-12T01:42:48;4.85;;;3.47;;
70045;SDS011;57385;41.832;23.494;2022-07-12T01:43:09;5.22;;;3.35;;
70045;SDS011;57385;41.832;23.494;2022-07-12T01:43:29;3.70;;;3.33;;
70045;SDS011;57385;41.832;23.494;2022-07-12T01:43:48;3.47;;;3.20;;
70045;SDS011;57385;41.832;23.494;2022-07-12T01:44:09;3.50;;;3.20;;
70045;SDS011;57385;41.832;23.494;2022-07-12T01:44:28;3.90;;;3.20;;
70045;SDS011;57385;41.832;23.494;2022-07-12T01:44:48;3.97;;;3.30;;
70045;SDS011;57385;41.832;23.494;2022-07-12T01:45:08;3.83;;;3.42;;
70045;SDS011;57385;41.832;23.494;2022-07-12T01:45:28;3.92;;;3.40;;
70045;SDS011;57385;41.832;23.494;2022-07-12T01:45:47;6.63;;;3.40;;
70045;SDS011;57385;41.832;23.494;2022-07-12T01:46:07;7.00;;;3.33;;
70045;SDS011;57385;41.832;23.494;2022-07-12T01:46:26;4.23;;;3.20;;
70045;SDS011;57385;41.832;23.494;2022-07-12T01:46:46;3.45;;;3.15;;
70045;SDS011;57385;41.832;23.494;2022-07-12T01:47:05;3.43;;;3.13;;
70045;SDS011;57385;41.832;23.494;2022-07-12T01:47:26;3.78;;;3.28;;
70045;SDS011;57385;41.832;23.494;2022-07-12T01:47:47;4.63;;;3.33;;
70045;SDS011;57385;41.832;23.494;2022-07-12T01:48:06;5.20;;;3.30;;
70045;SDS011;57385;41.832;23.494;2022-07-12T01:48:26;3.77;;;3.30;;
70045;SDS011;57385;41.832;23.494;2022-07-12T01:48:45;3.28;;;2.97;;
70045;SDS011;57385;41.832;23.494;2022-07-12T01:49:05;3.23;;;3.00;;
70045;SDS011;57385;41.832;23.494;2022-07-12T01:49:24;3.70;;;3.40;;
70045;SDS011;57385;41.832;23.494;2022-07-12T01:49:44;3.93;;;3.27;;
70045;SDS011;57385;41.832;23.494;2022-07-12T01:50:04;4.05;;;3.28;;
70045;SDS011;57385;41.832;23.494;2022-07-12T01:50:25;3.70;;;3.40;;
70045;SDS011;57385;41.832;23.494;2022-07-12T01:50:45;3.38;;;2.90;;
70045;SDS011;57385;41.832;23.494;2022-07-12T01:51:06;3.22;;;3.00;;
70045;SDS011;57385;41.832;23.494;2022-07-12T01:51:26;3.65;;;3.35;;
70045;SDS011;57385;41.832;23.494;2022-07-12T01:51:45;3.93;;;3.63;;
70045;SDS011;57385;41.832;23.494;2022-07-12T01:52:05;3.72;;;3.42;;
70045;SDS011;57385;41.832;23.494;2022-07-12T01:52:25;3.40;;;2.95;;
70045;SDS011;57385;41.832;23.494;2022-07-12T01:52:45;4.38;;;3.20;;
70045;SDS011;57385;41.832;23.494;2022-07-12T01:53:05;3.92;;;3.50;;
70045;SDS011;57385;41.832;23.494;2022-07-12T01:53:25;4.63;;;3.17;;
70045;SDS011;57385;41.832;23.494;2022-07-12T01:53:45;3.85;;;3.20;;
70045;SDS011;57385;41.832;23.494;2022-07-12T01:54:06;3.47;;;3.22;;
70045;SDS011;57385;41.832;23.494;2022-07-12T01:54:25;3.83;;;3.53;;
70045;SDS011;57385;41.832;23.494;2022-07-12T01:54:45;3.70;;;3.40;;
70045;SDS011;57385;41.832;23.494;2022-07-12T01:55:05;4.00;;;3.60;;
70045;SDS011;57385;41.832;23.494;2022-07-12T01:55:26;4.00;;;3.60;;
70045;SDS011;57385;41.832;23.494;2022-07-12T01:55:45;3.80;;;3.40;;
70045;SDS011;57385;41.832;23.494;2022-07-12T01:56:05;4.40;;;3.33;;
70045;SDS011;57385;41.832;23.494;2022-07-12T01:56:25;4.55;;;3.47;;
70045;SDS011;57385;41.832;23.494;2022-07-12T01:56:44;5.10;;;3.90;;
70045;SDS011;57385;41.832;23.494;2022-07-12T01:57:06;4.30;;;3.60;;
70045;SDS011;57385;41.832;23.494;2022-07-12T01:57:26;3.95;;;3.65;;
70045;SDS011;57385;41.832;23.494;2022-07-12T01:57:46;4.00;;;3.70;;
70045;SDS011;57385;41.832;23.494;2022-07-12T01:58:06;5.18;;;3.72;;
70045;SDS011;57385;41.832;23.494;2022-07-12T01:58:26;5.68;;;3.70;;
70045;SDS011;57385;41.832;23.494;2022-07-12T01:58:45;4.32;;;3.92;;